sensor_id;sensor_type;location;lat;lon;timestamp;pressure;altitude;pressure_sealevel;temperature;humidity
35918;BME280;22011;59.912;30.300;2023-12-14T00:01:24;101214.28;;;-0.96;73.19
35918;BME280;22011;59.912;30.300;2023-12-14T00:03:51;101207.50;;;-1.01;73.22
35918;BME280;22011;59.912;30.300;2023-12-14T00:06:19;101209.03;;;-0.96;73.43
35918;BME280;22011;59.912;30.300;2023-12-14T00:08:48;101208.63;;;-0.89;73.32
35918;BME280;22011;59.912;30.300;2023-12-14T00:11:15;101214.72;;;-0.88;73.13
35918;BME280;22011;59.912;30.300;2023-12-14T00:13:43;101216.41;;;-0.87;72.79
35918;BME280;22011;59.912;30.300;2023-12-14T00:16:10;101224.16;;;-0.86;72.31
35918;BME280;22011;59.912;30.300;2023-12-14T00:18:38;101224.25;;;-0.87;72.58
35918;BME280;22011;59.912;30.300;2023-12-14T00:21:06;101227.78;;;-0.88;72.83
35918;BME280;22011;59.912;30.300;2023-12-14T00:23:34;101228.88;;;-0.92;72.70
35918;BME280;22011;59.912;30.300;2023-12-14T00:26:03;101228.81;;;-0.91;72.67
35918;BME280;22011;59.912;30.300;2023-12-14T00:28:31;101227.19;;;-0.93;72.21
35918;BME280;22011;59.912;30.300;2023-12-14T00:30:58;101229.97;;;-0.96;72.26
35918;BME280;22011;59.912;30.300;2023-12-14T00:33:26;101238.75;;;-0.98;72.35
35918;BME280;22011;59.912;30.300;2023-12-14T00:35:53;101232.66;;;-0.98;72.13
35918;BME280;22011;59.912;30.300;2023-12-14T00:38:21;101231.97;;;-1.02;71.84
35918;BME280;22011;59.912;30.300;2023-12-14T00:40:48;101232.91;;;-1.03;72.14
35918;BME280;22011;59.912;30.300;2023-12-14T00:43:17;101232.66;;;-0.98;72.34
35918;BME280;22011;59.912;30.300;2023-12-14T00:45:45;101236.88;;;-0.95;72.80
35918;BME280;22011;59.912;30.300;2023-12-14T00:48:13;101241.97;;;-0.92;72.16
35918;BME280;22011;59.912;30.300;2023-12-14T00:50:40;101238.19;;;-0.87;72.15
35918;BME280;22011;59.912;30.300;2023-12-14T00:53:08;101244.19;;;-0.85;71.72
35918;BME280;22011;59.912;30.300;2023-12-14T00:55:35;101245.09;;;-0.86;71.74
35918;BME280;22011;59.912;30.300;2023-12-14T00:58:03;101245.88;;;-0.84;71.57
35918;BME280;22011;59.912;30.300;2023-12-14T01:00:32;101243.00;;;-0.79;71.88
35918;BME280;22011;59.912;30.300;2023-12-14T01:02:59;101240.47;;;-0.81;71.59
35918;BME280;22011;59.912;30.300;2023-12-14T01:05:27;101245.63;;;-0.79;71.49
35918;BME280;22011;59.912;30.300;2023-12-14T01:07:54;101239.34;;;-0.59;70.87
35918;BME280;22011;59.912;30.300;2023-12-14T01:10:22;101246.78;;;-0.52;70.48
35918;BME280;22011;59.912;30.300;2023-12-14T01:12:50;101248.13;;;-0.45;70.61
35918;BME280;22011;59.912;30.300;2023-12-14T01:15:17;101257.22;;;-0.68;70.78
35918;BME280;22011;59.912;30.300;2023-12-14T01:17:46;101251.97;;;-0.68;71.06
35918;BME280;22011;59.912;30.300;2023-12-14T01:20:14;101247.75;;;-0.70;71.13
35918;BME280;22011;59.912;30.300;2023-12-14T01:22:41;101257.91;;;-0.64;70.75
35918;BME280;22011;59.912;30.300;2023-12-14T01:25:09;101257.91;;;-0.64;70.74
35918;BME280;22011;59.912;30.300;2023-12-14T01:27:36;101248.44;;;-0.67;70.49
35918;BME280;22011;59.912;30.300;2023-12-14T01:30:05;101257.28;;;-0.69;70.80
35918;BME280;22011;59.912;30.300;2023-12-14T01:32:32;101255.59;;;-0.70;71.04
35918;BME280;22011;59.912;30.300;2023-12-14T01:35:01;101267.53;;;-0.64;71.29
35918;BME280;22011;59.912;30.300;2023-12-14T01:37:29;101253.59;;;-0.65;71.06
35918;BME280;22011;59.912;30.300;2023-12-14T01:39:56;101255.41;;;-0.34;69.96
35918;BME280;22011;59.912;30.300;2023-12-14T01:42:24;101247.97;;;-0.26;69.30
35918;BME280;22011;59.912;30.300;2023-12-14T01:44:52;101257.44;;;-0.23;69.17
35918;BME280;22011;59.912;30.300;2023-12-14T01:47:19;101257.44;;;-0.23;68.98
35918;BME280;22011;59.912;30.300;2023-12-14T01:49:47;101250.44;;;-0.23;68.85
35918;BME280;22011;59.912;30.300;2023-12-14T01:52:16;101252.13;;;-0.22;68.92
35918;BME280;22011;59.912;30.300;2023-12-14T01:54:44;101248.66;;;-0.22;68.72
35918;BME280;22011;59.912;30.300;2023-12-14T01:57:11;101248.81;;;-0.25;68.50
35918;BME280;22011;59.912;30.300;2023-12-14T01:59:39;101245.28;;;-0.24;68.73
35918;BME280;22011;59.912;30.300;2023-12-14T02:02:06;101247.91;;;-0.24;68.37
35918;BME280;22011;59.912;30.300;2023-12-14T02:04:34;101251.03;;;-0.18;68.46
35918;BME280;22011;59.912;30.300;2023-12-14T02:07:03;101246.03;;;-0.22;68.08
35918;BME280;22011;59.912;30.300;2023-12-14T02:09:32;101249.41;;;-0.20;68.25
35918;BME280;22011;59.912;30.300;2023-12-14T02:12:00;101246.97;;;-0.23;68.37
35918;BME280;22011;59.912;30.300;2023-12-14T02:14:27;101254.06;;;-0.25;68.61
35918;BME280;22011;59.912;30.300;2023-12-14T02:16:55;101256.69;;;-0.25;68.64
35918;BME280;22011;59.912;30.300;2023-12-14T02:19:23;101245.19;;;-0.23;68.60
35918;BME280;22011;59.912;30.300;2023-12-14T02:21:50;101252.88;;;-0.20;68.39
35918;BME280;22011;59.912;30.300;2023-12-14T02:24:19;101245.03;;;-0.20;68.53
35918;BME280;22011;59.912;30.300;2023-12-14T02:26:47;101248.06;;;-0.27;68.44
35918;BME280;22011;59.912;30.300;2023-12-14T02:29:14;101243.75;;;-0.28;68.38
35918;BME280;22011;59.912;30.300;2023-12-14T02:31:42;101244.69;;;-0.29;68.82
35918;BME280;22011;59.912;30.300;2023-12-14T02:34:09;101259.63;;;-0.31;68.59
35918;BME280;22011;59.912;30.300;2023-12-14T02:36:37;101257.19;;;-0.35;68.75
35918;BME280;22011;59.912;30.300;2023-12-14T02:39:04;101254.97;;;-0.42;68.67
35918;BME280;22011;59.912;30.300;2023-12-14T02:41:33;101248.13;;;-0.45;68.73
35918;BME280;22011;59.912;30.300;2023-12-14T02:44:01;101249.47;;;-0.53;68.79
35918;BME280;22011;59.912;30.300;2023-12-14T02:46:28;101252.50;;;-0.61;69.10
35918;BME280;22011;59.912;30.300;2023-12-14T02:48:56;101257.28;;;-0.69;69.50
35918;BME280;22011;59.912;30.300;2023-12-14T02:51:23;101259.22;;;-0.73;70.07
35918;BME280;22011;59.912;30.300;2023-12-14T02:53:51;101270.00;;;-0.79;70.31
35918;BME280;22011;59.912;30.300;2023-12-14T02:56:19;101266.78;;;-0.84;70.32
35918;BME280;22011;59.912;30.300;2023-12-14T02:58:48;101266.09;;;-0.87;70.70
35918;BME280;22011;59.912;30.300;2023-12-14T03:01:18;101272.34;;;-0.90;70.78
35918;BME280;22011;59.912;30.300;2023-12-14T03:03:46;101268.28;;;-0.95;70.74
35918;BME280;22011;59.912;30.300;2023-12-14T03:06:14;101267.44;;;-0.96;70.58
35918;BME280;22011;59.912;30.300;2023-12-14T03:08:41;101278.75;;;-0.95;70.50
35918;BME280;22011;59.912;30.300;2023-12-14T03:11:09;101279.66;;;-0.96;70.29
35918;BME280;22011;59.912;30.300;2023-12-14T03:13:37;101269.13;;;-0.95;70.56
35918;BME280;22011;59.912;30.300;2023-12-14T03:16:07;101279.44;;;-0.92;70.47
35918;BME280;22011;59.912;30.300;2023-12-14T03:18:34;101278.91;;;-0.99;70.15
35918;BME280;22011;59.912;30.300;2023-12-14T03:21:02;101279.25;;;-1.05;70.55
35918;BME280;22011;59.912;30.300;2023-12-14T03:23:30;101286.13;;;-1.04;71.05
35918;BME280;22011;59.912;30.300;2023-12-14T03:25:57;101288.00;;;-1.06;70.61
35918;BME280;22011;59.912;30.300;2023-12-14T03:28:25;101284.78;;;-1.11;70.63
35918;BME280;22011;59.912;30.300;2023-12-14T03:30:52;101282.47;;;-1.17;70.79
35918;BME280;22011;59.912;30.300;2023-12-14T03:33:21;101285.94;;;-1.16;70.98
35918;BME280;22011;59.912;30.300;2023-12-14T03:35:49;101288.78;;;-1.21;71.05
35918;BME280;22011;59.912;30.300;2023-12-14T03:38:17;101294.78;;;-1.19;70.98
35918;BME280;22011;59.912;30.300;2023-12-14T03:40:44;101288.47;;;-1.15;71.21
35918;BME280;22011;59.912;30.300;2023-12-14T03:43:12;101288.31;;;-1.12;71.03
35918;BME280;22011;59.912;30.300;2023-12-14T03:45:39;101278.72;;;-1.11;70.50
35918;BME280;22011;59.912;30.300;2023-12-14T03:48:07;101279.72;;;-1.14;70.61
35918;BME280;22011;59.912;30.300;2023-12-14T03:50:36;101290.00;;;-1.11;70.83
35918;BME280;22011;59.912;30.300;2023-12-14T03:53:03;101285.00;;;-1.15;70.42
35918;BME280;22011;59.912;30.300;2023-12-14T03:55:31;101293.00;;;-1.18;70.39
35918;BME280;22011;59.912;30.300;2023-12-14T03:57:58;101293.00;;;-1.18;70.59
35918;BME280;22011;59.912;30.300;2023-12-14T04:00:26;101285.09;;;-1.17;71.00
35918;BME280;22011;59.912;30.300;2023-12-14T04:02:53;101294.56;;;-1.14;70.88
35918;BME280;22011;59.912;30.300;2023-12-14T04:05:21;101289.94;;;-1.09;70.77
35918;BME280;22011;59.912;30.300;2023-12-14T04:07:50;101294.09;;;-1.05;70.72
35918;BME280;22011;59.912;30.300;2023-12-14T04:10:18;101292.22;;;-1.03;70.77
35918;BME280;22011;59.912;30.300;2023-12-14T04:12:45;101289.69;;;-1.05;70.59
35918;BME280;22011;59.912;30.300;2023-12-14T04:15:13;101288.75;;;-1.04;70.79
35918;BME280;22011;59.912;30.300;2023-12-14T04:17:40;101293.97;;;-1.04;70.44
35918;BME280;22011;59.912;30.300;2023-12-14T04:20:09;101300.16;;;-1.05;70.19
35918;BME280;22011;59.912;30.300;2023-12-14T04:22:37;101300.31;;;-1.08;70.16
35918;BME280;22011;59.912;30.300;2023-12-14T04:25:06;101299.13;;;-1.02;70.53
35918;BME280;22011;59.912;30.300;2023-12-14T04:27:34;101303.69;;;-1.06;70.72
35918;BME280;22011;59.912;30.300;2023-12-14T04:30:02;101299.31;;;-1.05;70.96
35918;BME280;22011;59.912;30.300;2023-12-14T04:32:30;101306.25;;;-1.04;70.55
35918;BME280;22011;59.912;30.300;2023-12-14T04:34:58;101311.53;;;-1.06;70.21
35918;BME280;22011;59.912;30.300;2023-12-14T04:37:25;101309.94;;;-1.08;70.64
35918;BME280;22011;59.912;30.300;2023-12-14T04:39:53;101315.16;;;-1.08;70.73
35918;BME280;22011;59.912;30.300;2023-12-14T04:42:22;101314.16;;;-1.06;71.08
35918;BME280;22011;59.912;30.300;2023-12-14T04:44:49;101311.63;;;-1.07;71.05
35918;BME280;22011;59.912;30.300;2023-12-14T04:47:17;101313.31;;;-1.06;70.96
35918;BME280;22011;59.912;30.300;2023-12-14T04:49:44;101323.25;;;-1.13;70.66
35918;BME280;22011;59.912;30.300;2023-12-14T04:52:12;101316.53;;;-1.18;70.74
35918;BME280;22011;59.912;30.300;2023-12-14T04:54:39;101314.16;;;-1.23;70.82
35918;BME280;22011;59.912;30.300;2023-12-14T04:57:08;101317.69;;;-1.24;71.25
35918;BME280;22011;59.912;30.300;2023-12-14T04:59:37;101317.94;;;-1.28;70.75
35918;BME280;22011;59.912;30.300;2023-12-14T05:02:04;101312.31;;;-1.38;70.77
35918;BME280;22011;59.912;30.300;2023-12-14T05:04:32;101317.69;;;-1.41;70.76
35918;BME280;22011;59.912;30.300;2023-12-14T05:06:59;101321.06;;;-1.39;71.32
35918;BME280;22011;59.912;30.300;2023-12-14T05:09:27;101318.44;;;-1.39;70.73
35918;BME280;22011;59.912;30.300;2023-12-14T05:11:55;101317.53;;;-1.38;70.79
35918;BME280;22011;59.912;30.300;2023-12-14T05:14:23;101323.75;;;-1.41;70.70
35918;BME280;22011;59.912;30.300;2023-12-14T05:16:52;101321.00;;;-1.38;70.54
35918;BME280;22011;59.912;30.300;2023-12-14T05:19:19;101321.91;;;-1.39;70.70
35918;BME280;22011;59.912;30.300;2023-12-14T05:21:47;101327.00;;;-1.36;70.49
35918;BME280;22011;59.912;30.300;2023-12-14T05:24:15;101323.38;;;-1.33;70.14
35918;BME280;22011;59.912;30.300;2023-12-14T05:26:42;101330.38;;;-1.34;69.69
35918;BME280;22011;59.912;30.300;2023-12-14T05:29:10;101329.53;;;-1.34;69.92
35918;BME280;22011;59.912;30.300;2023-12-14T05:31:37;101332.06;;;-1.33;70.18
35918;BME280;22011;59.912;30.300;2023-12-14T05:34:06;101322.31;;;-1.29;70.21
35918;BME280;22011;59.912;30.300;2023-12-14T05:36:34;101326.69;;;-1.29;69.83
35918;BME280;22011;59.912;30.300;2023-12-14T05:39:01;101329.22;;;-1.28;69.72
35918;BME280;22011;59.912;30.300;2023-12-14T05:41:29;101329.06;;;-1.25;69.64
35918;BME280;22011;59.912;30.300;2023-12-14T05:43:57;101326.38;;;-1.23;69.66
35918;BME280;22011;59.912;30.300;2023-12-14T05:46:25;101327.22;;;-1.23;69.61
35918;BME280;22011;59.912;30.300;2023-12-14T05:48:52;101336.00;;;-1.24;69.52
35918;BME280;22011;59.912;30.300;2023-12-14T05:51:32;101338.94;;;-1.13;69.76
35918;BME280;22011;59.912;30.300;2023-12-14T05:54:00;101345.75;;;-1.27;69.20
35918;BME280;22011;59.912;30.300;2023-12-14T05:56:28;101351.91;;;-1.28;69.35
35918;BME280;22011;59.912;30.300;2023-12-14T05:58:56;101349.44;;;-1.32;69.68
35918;BME280;22011;59.912;30.300;2023-12-14T06:01:25;101351.22;;;-1.32;69.88
35918;BME280;22011;59.912;30.300;2023-12-14T06:03:52;101356.50;;;-1.34;69.68
35918;BME280;22011;59.912;30.300;2023-12-14T06:06:20;101357.44;;;-1.35;70.17
35918;BME280;22011;59.912;30.300;2023-12-14T06:08:49;101358.47;;;-1.20;69.85
35918;BME280;22011;59.912;30.300;2023-12-14T06:11:17;101365.13;;;-1.32;69.74
35918;BME280;22011;59.912;30.300;2023-12-14T06:13:46;101368.97;;;-1.39;69.79
35918;BME280;22011;59.912;30.300;2023-12-14T06:16:13;101375.97;;;-1.39;70.02
35918;BME280;22011;59.912;30.300;2023-12-14T06:18:41;101375.25;;;-1.43;69.91
35918;BME280;22011;59.912;30.300;2023-12-14T06:21:11;101371.03;;;-1.45;70.31
35918;BME280;22011;59.912;30.300;2023-12-14T06:23:39;101378.25;;;-1.50;70.37
35918;BME280;22011;59.912;30.300;2023-12-14T06:26:08;101376.53;;;-1.51;70.97
35918;BME280;22011;59.912;30.300;2023-12-14T06:28:36;101380.00;;;-1.51;71.15
35918;BME280;22011;59.912;30.300;2023-12-14T06:31:03;101378.03;;;-1.46;71.42
35918;BME280;22011;59.912;30.300;2023-12-14T06:33:31;101375.19;;;-1.41;71.33
35918;BME280;22011;59.912;30.300;2023-12-14T06:36:05;101374.13;;;-1.37;71.21
35918;BME280;22011;59.912;30.300;2023-12-14T06:38:37;101379.78;;;-1.46;70.80
35918;BME280;22011;59.912;30.300;2023-12-14T06:41:05;101379.16;;;-1.51;70.85
35918;BME280;22011;59.912;30.300;2023-12-14T06:43:34;101381.78;;;-1.51;71.04
35918;BME280;22011;59.912;30.300;2023-12-14T06:46:02;101385.38;;;-1.54;71.12
35918;BME280;22011;59.912;30.300;2023-12-14T06:48:29;101385.22;;;-1.51;71.47
35918;BME280;22011;59.912;30.300;2023-12-14T06:50:57;101383.47;;;-1.50;71.37
35918;BME280;22011;59.912;30.300;2023-12-14T06:53:25;101392.16;;;-1.50;71.07
35918;BME280;22011;59.912;30.300;2023-12-14T06:55:52;101386.06;;;-1.50;71.48
35918;BME280;22011;59.912;30.300;2023-12-14T06:58:20;101393.91;;;-1.50;71.21
35918;BME280;22011;59.912;30.300;2023-12-14T07:00:49;101393.78;;;-1.47;71.31
35918;BME280;22011;59.912;30.300;2023-12-14T07:03:16;101405.78;;;-1.43;71.57
35918;BME280;22011;59.912;30.300;2023-12-14T07:05:44;101409.16;;;-1.41;71.35
35918;BME280;22011;59.912;30.300;2023-12-14T07:08:11;101408.25;;;-1.40;71.06
35918;BME280;22011;59.912;30.300;2023-12-14T07:10:41;101409.94;;;-1.39;70.83
35918;BME280;22011;59.912;30.300;2023-12-14T07:13:08;101420.59;;;-1.44;70.84
35918;BME280;22011;59.912;30.300;2023-12-14T07:15:36;101414.69;;;-1.47;70.51
35918;BME280;22011;59.912;30.300;2023-12-14T07:18:06;101412.91;;;-1.47;70.69
35918;BME280;22011;59.912;30.300;2023-12-14T07:20:33;101416.22;;;-1.43;70.41
35918;BME280;22011;59.912;30.300;2023-12-14T07:23:01;101414.25;;;-1.38;70.71
35918;BME280;22011;59.912;30.300;2023-12-14T07:25:28;101418.41;;;-1.34;70.56
35918;BME280;22011;59.912;30.300;2023-12-14T07:27:56;101421.03;;;-1.34;70.66
35918;BME280;22011;59.912;30.300;2023-12-14T07:30:23;101429.63;;;-1.32;70.41
35918;BME280;22011;59.912;30.300;2023-12-14T07:32:51;101420.88;;;-1.31;70.27
35918;BME280;22011;59.912;30.300;2023-12-14T07:35:20;101421.56;;;-1.27;70.10
35918;BME280;22011;59.912;30.300;2023-12-14T07:37:49;101423.50;;;-1.31;69.88
35918;BME280;22011;59.912;30.300;2023-12-14T07:40:17;101423.50;;;-1.31;70.03
35918;BME280;22011;59.912;30.300;2023-12-14T07:42:44;101420.88;;;-1.31;69.75
35918;BME280;22011;59.912;30.300;2023-12-14T07:45:12;101427.03;;;-1.32;69.53
35918;BME280;22011;59.912;30.300;2023-12-14T07:47:40;101430.41;;;-1.30;69.52
35918;BME280;22011;59.912;30.300;2023-12-14T07:50:08;101425.19;;;-1.30;69.56
35918;BME280;22011;59.912;30.300;2023-12-14T07:52:37;101437.19;;;-1.26;69.66
35918;BME280;22011;59.912;30.300;2023-12-14T07:55:05;101430.19;;;-1.25;69.69
35918;BME280;22011;59.912;30.300;2023-12-14T07:57:33;101431.97;;;-1.26;69.22
35918;BME280;22011;59.912;30.300;2023-12-14T08:00:01;101432.03;;;-1.27;69.33
35918;BME280;22011;59.912;30.300;2023-12-14T08:02:32;101436.50;;;-1.29;69.31
35918;BME280;22011;59.912;30.300;2023-12-14T08:04:59;101432.81;;;-1.25;69.38
35918;BME280;22011;59.912;30.300;2023-12-14T08:07:27;101440.56;;;-1.24;69.68
35918;BME280;22011;59.912;30.300;2023-12-14T08:09:57;101442.13;;;-1.20;69.71
35918;BME280;22011;59.912;30.300;2023-12-14T08:12:25;101450.66;;;-1.16;70.09
35918;BME280;22011;59.912;30.300;2023-12-14T08:14:53;101452.16;;;-1.11;69.59
35918;BME280;22011;59.912;30.300;2023-12-14T08:17:20;101447.97;;;-1.15;69.42
35918;BME280;22011;59.912;30.300;2023-12-14T08:19:48;101456.81;;;-1.17;69.24
35918;BME280;22011;59.912;30.300;2023-12-14T08:22:15;101459.44;;;-1.17;69.55
35918;BME280;22011;59.912;30.300;2023-12-14T08:24:43;101452.38;;;-1.15;69.37
35918;BME280;22011;59.912;30.300;2023-12-14T08:27:12;101454.06;;;-1.14;69.30
35918;BME280;22011;59.912;30.300;2023-12-14T08:29:40;101459.22;;;-1.13;69.10
35918;BME280;22011;59.912;30.300;2023-12-14T08:32:07;101457.66;;;-1.17;69.15
35918;BME280;22011;59.912;30.300;2023-12-14T08:34:35;101460.50;;;-1.21;69.02
35918;BME280;22011;59.912;30.300;2023-12-14T08:37:03;101457.34;;;-1.28;69.03
35918;BME280;22011;59.912;30.300;2023-12-14T08:39:31;101467.72;;;-1.26;69.08
35918;BME280;22011;59.912;30.300;2023-12-14T08:41:59;101464.09;;;-1.24;68.80
35918;BME280;22011;59.912;30.300;2023-12-14T08:44:28;101460.66;;;-1.24;68.91
35918;BME280;22011;59.912;30.300;2023-12-14T08:46:55;101464.03;;;-1.22;68.84
35918;BME280;22011;59.912;30.300;2023-12-14T08:49:23;101465.66;;;-1.20;68.71
35918;BME280;22011;59.912;30.300;2023-12-14T08:51:51;101462.91;;;-1.17;68.49
35918;BME280;22011;59.912;30.300;2023-12-14T08:54:19;101464.31;;;-1.10;68.82
35918;BME280;22011;59.912;30.300;2023-12-14T08:56:46;101458.06;;;-1.07;68.53
35918;BME280;22011;59.912;30.300;2023-12-14T08:59:14;101460.63;;;-1.06;68.12
35918;BME280;22011;59.912;30.300;2023-12-14T09:01:43;101471.59;;;-0.99;67.96
35918;BME280;22011;59.912;30.300;2023-12-14T09:04:10;101468.28;;;-1.03;68.29
35918;BME280;22011;59.912;30.300;2023-12-14T09:06:39;101475.59;;;-1.09;68.31
35918;BME280;22011;59.912;30.300;2023-12-14T09:09:08;101476.59;;;-1.12;68.18
35918;BME280;22011;59.912;30.300;2023-12-14T09:11:35;101479.28;;;-1.13;68.15
35918;BME280;22011;59.912;30.300;2023-12-14T09:14:03;101477.22;;;-1.07;68.01
35918;BME280;22011;59.912;30.300;2023-12-14T09:16:31;101471.09;;;-1.06;68.22
35918;BME280;22011;59.912;30.300;2023-12-14T09:19:00;101475.19;;;-1.19;68.52
35918;BME280;22011;59.912;30.300;2023-12-14T09:21:27;101475.22;;;-1.38;69.02
35918;BME280;22011;59.912;30.300;2023-12-14T09:23:55;101478.97;;;-1.43;68.88
35918;BME280;22011;59.912;30.300;2023-12-14T09:26:22;101473.94;;;-1.48;68.75
35918;BME280;22011;59.912;30.300;2023-12-14T09:28:50;101471.41;;;-1.49;68.70
35918;BME280;22011;59.912;30.300;2023-12-14T09:31:17;101473.25;;;-1.51;69.02
35918;BME280;22011;59.912;30.300;2023-12-14T09:33:45;101472.75;;;-1.59;69.01
35918;BME280;22011;59.912;30.300;2023-12-14T09:36:14;101477.06;;;-1.58;69.46
35918;BME280;22011;59.912;30.300;2023-12-14T09:38:41;101474.38;;;-1.57;69.50
35918;BME280;22011;59.912;30.300;2023-12-14T09:41:09;101466.25;;;-1.51;69.80
35918;BME280;22011;59.912;30.300;2023-12-14T09:43:37;101478.03;;;-1.42;69.62
35918;BME280;22011;59.912;30.300;2023-12-14T09:46:05;101471.13;;;-1.43;68.97
35918;BME280;22011;59.912;30.300;2023-12-14T09:48:33;101477.91;;;-1.39;69.16
35918;BME280;22011;59.912;30.300;2023-12-14T09:51:00;101475.91;;;-1.34;69.10
35918;BME280;22011;59.912;30.300;2023-12-14T09:53:29;101485.25;;;-1.28;69.05
35918;BME280;22011;59.912;30.300;2023-12-14T09:55:57;101476.69;;;-1.32;69.14
35918;BME280;22011;59.912;30.300;2023-12-14T09:58:25;101479.03;;;-1.26;69.23
35918;BME280;22011;59.912;30.300;2023-12-14T10:00:52;101483.69;;;-1.33;68.73
35918;BME280;22011;59.912;30.300;2023-12-14T10:03:24;101481.22;;;-1.36;69.23
35918;BME280;22011;59.912;30.300;2023-12-14T10:05:54;101489.19;;;-1.39;69.17
35918;BME280;22011;59.912;30.300;2023-12-14T10:08:22;101495.00;;;-1.32;69.23
35918;BME280;22011;59.912;30.300;2023-12-14T10:10:52;101490.13;;;-1.21;69.43
35918;BME280;22011;59.912;30.300;2023-12-14T10:13:22;101498.88;;;-1.22;68.70
35918;BME280;22011;59.912;30.300;2023-12-14T10:16:02;101488.50;;;-1.23;68.20
35918;BME280;22011;59.912;30.300;2023-12-14T10:18:31;101486.88;;;-1.26;69.40
35918;BME280;22011;59.912;30.300;2023-12-14T10:21:00;101496.84;;;-1.34;69.13
35918;BME280;22011;59.912;30.300;2023-12-14T10:23:28;101493.72;;;-1.42;68.76
35918;BME280;22011;59.912;30.300;2023-12-14T10:25:57;101500.94;;;-1.47;68.94
35918;BME280;22011;59.912;30.300;2023-12-14T10:28:24;101496.91;;;-1.54;68.84
35918;BME280;22011;59.912;30.300;2023-12-14T10:30:52;101497.94;;;-1.58;68.87
35918;BME280;22011;59.912;30.300;2023-12-14T10:33:20;101493.72;;;-1.61;68.66
35918;BME280;22011;59.912;30.300;2023-12-14T10:35:47;101482.56;;;-1.65;68.47
35918;BME280;22011;59.912;30.300;2023-12-14T10:38:15;101486.00;;;-1.64;68.72
35918;BME280;22011;59.912;30.300;2023-12-14T10:40:44;101485.94;;;-1.62;69.10
35918;BME280;22011;59.912;30.300;2023-12-14T10:43:14;101484.81;;;-1.57;69.12
35918;BME280;22011;59.912;30.300;2023-12-14T10:45:43;101480.44;;;-1.56;69.36
35918;BME280;22011;59.912;30.300;2023-12-14T10:48:14;101479.38;;;-1.52;69.04
35918;BME280;22011;59.912;30.300;2023-12-14T10:50:42;101475.78;;;-1.50;68.54
35918;BME280;22011;59.912;30.300;2023-12-14T10:53:10;101481.06;;;-1.51;68.60
35918;BME280;22011;59.912;30.300;2023-12-14T10:55:41;101477.63;;;-1.52;68.73
35918;BME280;22011;59.912;30.300;2023-12-14T10:58:10;101480.16;;;-1.50;68.58
35918;BME280;22011;59.912;30.300;2023-12-14T11:00:42;101482.56;;;-1.46;68.46
35918;BME280;22011;59.912;30.300;2023-12-14T11:03:13;101490.25;;;-1.43;68.84
35918;BME280;22011;59.912;30.300;2023-12-14T11:05:40;101488.78;;;-1.48;68.63
35918;BME280;22011;59.912;30.300;2023-12-14T11:08:08;101487.28;;;-1.54;68.84
35918;BME280;22011;59.912;30.300;2023-12-14T11:10:39;101490.69;;;-1.52;69.28
35918;BME280;22011;59.912;30.300;2023-12-14T11:13:09;101488.13;;;-1.53;69.05
35918;BME280;22011;59.912;30.300;2023-12-14T11:15:48;101491.47;;;-1.50;69.09
35918;BME280;22011;59.912;30.300;2023-12-14T11:18:26;101488.63;;;-1.45;69.44
35918;BME280;22011;59.912;30.300;2023-12-14T11:20:56;101486.94;;;-1.46;69.71
35918;BME280;22011;59.912;30.300;2023-12-14T11:23:43;101493.16;;;-1.30;70.32
35918;BME280;22011;59.912;30.300;2023-12-14T11:26:11;101492.16;;;-1.46;69.56
35918;BME280;22011;59.912;30.300;2023-12-14T11:28:40;101493.94;;;-1.47;69.68
35918;BME280;22011;59.912;30.300;2023-12-14T11:31:11;101495.84;;;-1.50;69.50
35918;BME280;22011;59.912;30.300;2023-12-14T11:33:39;101502.25;;;-1.57;69.34
35918;BME280;22011;59.912;30.300;2023-12-14T11:36:07;101495.47;;;-1.61;69.15
35918;BME280;22011;59.912;30.300;2023-12-14T11:38:35;101493.72;;;-1.61;68.91
35918;BME280;22011;59.912;30.300;2023-12-14T11:41:03;101497.09;;;-1.59;68.97
35918;BME280;22011;59.912;30.300;2023-12-14T11:43:38;101495.00;;;-1.51;69.60
35918;BME280;22011;59.912;30.300;2023-12-14T11:46:06;101503.75;;;-1.52;70.06
35918;BME280;22011;59.912;30.300;2023-12-14T11:48:35;101507.84;;;-1.46;69.84
35918;BME280;22011;59.912;30.300;2023-12-14T11:51:04;101510.25;;;-1.42;69.36
35918;BME280;22011;59.912;30.300;2023-12-14T11:53:31;101513.09;;;-1.46;69.28
35918;BME280;22011;59.912;30.300;2023-12-14T11:56:00;101523.53;;;-1.46;69.40
35918;BME280;22011;59.912;30.300;2023-12-14T11:58:28;101521.84;;;-1.47;68.98
35918;BME280;22011;59.912;30.300;2023-12-14T12:01:10;101534.63;;;-1.41;69.22
35918;BME280;22011;59.912;30.300;2023-12-14T12:03:39;101526.44;;;-1.52;68.84
35918;BME280;22011;59.912;30.300;2023-12-14T12:06:07;101525.00;;;-1.59;68.92
35918;BME280;22011;59.912;30.300;2023-12-14T12:08:41;101525.56;;;-1.53;69.50
35918;BME280;22011;59.912;30.300;2023-12-14T12:11:09;101520.63;;;-1.59;69.55
35918;BME280;22011;59.912;30.300;2023-12-14T12:13:36;101528.47;;;-1.59;69.95
35918;BME280;22011;59.912;30.300;2023-12-14T12:16:04;101530.88;;;-1.54;69.51
35918;BME280;22011;59.912;30.300;2023-12-14T12:18:32;101526.50;;;-1.54;69.47
35918;BME280;22011;59.912;30.300;2023-12-14T12:21:01;101534.19;;;-1.51;69.53
35918;BME280;22011;59.912;30.300;2023-12-14T12:23:31;101534.41;;;-1.55;69.47
35918;BME280;22011;59.912;30.300;2023-12-14T12:25:59;101540.47;;;-1.55;69.15
35918;BME280;22011;59.912;30.300;2023-12-14T12:28:26;101544.84;;;-1.55;69.07
35918;BME280;22011;59.912;30.300;2023-12-14T12:30:54;101541.59;;;-1.60;68.85
35918;BME280;22011;59.912;30.300;2023-12-14T12:33:22;101547.59;;;-1.58;69.22
35918;BME280;22011;59.912;30.300;2023-12-14T12:35:49;101549.44;;;-1.60;68.89
35918;BME280;22011;59.912;30.300;2023-12-14T12:38:18;101549.44;;;-1.60;69.25
35918;BME280;22011;59.912;30.300;2023-12-14T12:40:46;101555.72;;;-1.65;69.08
35918;BME280;22011;59.912;30.300;2023-12-14T12:43:14;101552.19;;;-1.63;69.20
35918;BME280;22011;59.912;30.300;2023-12-14T12:45:41;101553.03;;;-1.63;69.12